Time;durP1;ratioP1;P1;durP2;ratioP2;P2;SDS_P1;SDS_P2;PMS_P1;PMS_P2;Temp;Humidity;BMP_temperature;BMP_pressure;BME280_temperature;BME280_humidity;BME280_pressure;Samples;Min_cycle;Max_cycle;Signal;HPM_P1;HPM_P2
2022/02/15 00:00:32;;;;;;;39.38;21.95;;;5.40;99.90;;;;;;4996755;28;20018;-80
2022/02/15 00:02:58;;;;;;;32.13;21.02;;;5.40;99.90;;;;;;5001796;28;20011;-78
2022/02/15 00:05:24;;;;;;;37.10;21.23;;;5.40;99.90;;;;;;5001703;28;20054;-79
2022/02/15 00:07:50;;;;;;;;;;;5.50;99.90;;;;;;5002459;28;20098;-79
2022/02/15 00:10:16;;;;;;;36.80;20.70;;;5.50;99.90;;;;;;5001204;28;19914;-79
2022/02/15 00:12:42;;;;;;;35.45;20.33;;;5.50;99.90;;;;;;4984680;28;20019;-79
2022/02/15 00:15:09;;;;;;;39.40;22.95;;;5.60;99.90;;;;;;4985021;28;20019;-79
2022/02/15 00:49:23;;;;;;;27.48;18.15;;;5.50;99.90;;;;;;4995984;28;20043;-79
2022/02/15 00:51:48;;;;;;;31.98;19.88;;;5.60;99.90;;;;;;4998748;28;20038;-79
2022/02/15 00:54:14;;;;;;;33.97;19.52;;;5.50;99.90;;;;;;4983134;28;20022;-79
2022/02/15 00:56:41;;;;;;;38.10;19.08;;;5.50;99.90;;;;;;4999823;28;20019;-79
2022/02/15 00:59:09;;;;;;;34.50;19.15;;;5.50;99.90;;;;;;4999836;28;20022;-79
2022/02/15 01:01:36;;;;;;;37.60;23.33;;;5.50;99.90;;;;;;4983282;28;20034;-79
2022/02/15 01:04:03;;;;;;;46.90;25.40;;;5.60;99.90;;;;;;4983176;28;20038;-80
2022/02/15 01:06:29;;;;;;;42.13;23.15;;;5.60;99.90;;;;;;4983875;28;20042;-79
2022/02/15 01:08:55;;;;;;;30.90;21.58;;;5.60;99.90;;;;;;4983000;28;20027;-79
2022/02/15 01:11:21;;;;;;;36.50;22.88;;;5.50;99.90;;;;;;4997013;28;20078;-79
2022/02/15 01:13:47;;;;;;;;;;;5.40;99.90;;;;;;4982245;28;20031;-81
2022/02/15 01:16:13;;;;;;;34.88;23.38;;;5.30;99.90;;;;;;4981814;28;19936;-79
2022/02/15 02:07:28;;;;;;;29.73;20.58;;;5.20;99.90;;;;;;5034308;28;20037;-79
2022/02/15 02:09:54;;;;;;;;;;;5.20;99.90;;;;;;5014978;28;20037;-80
2022/02/15 02:12:20;;;;;;;32.95;19.75;;;5.20;99.90;;;;;;5038563;28;19894;-79
2022/02/15 02:27:47;;;;;;;39.13;22.05;;;5.00;99.90;;;;;;6070815;22;20026;-78
2022/02/15 02:30:13;;;;;;;33.78;22.70;;;5.20;99.90;;;;;;5032864;28;20094;-80
2022/02/15 02:32:39;;;;;;;33.85;23.05;;;5.20;99.90;;;;;;5034506;28;20026;-79
2022/02/15 02:35:05;;;;;;;35.55;23.85;;;5.10;99.90;;;;;;5032744;28;20097;-79
2022/02/15 02:37:32;;;;;;;36.70;23.05;;;5.00;99.90;;;;;;5015802;28;20596;-80
2022/02/15 02:40:02;;;;;;;37.78;23.63;;;5.10;99.90;;;;;;5017115;28;20061;-79
2022/02/15 02:42:30;;;;;;;39.05;25.05;;;5.10;99.90;;;;;;5027581;28;20033;-79
2022/02/15 02:44:59;;;;;;;47.55;27.02;;;5.10;99.90;;;;;;4994759;28;20083;-79
2022/02/15 02:47:25;;;;;;;38.70;23.85;;;5.20;99.90;;;;;;5034354;28;20030;-80
2022/02/15 02:49:52;;;;;;;31.15;21.42;;;5.20;99.90;;;;;;5015806;28;20027;-80
2022/02/15 02:52:19;;;;;;;45.08;26.67;;;5.50;99.90;;;;;;5033544;28;20022;-79
2022/02/15 02:54:45;;;;;;;35.00;22.70;;;5.40;99.90;;;;;;5034861;28;20033;-80
2022/02/15 02:57:12;;;;;;;36.40;23.98;;;5.30;99.90;;;;;;5038308;28;20066;-80
2022/02/15 02:59:46;;;;;;;37.83;24.83;;;5.10;99.90;;;;;;5022219;28;20021;-80
2022/02/15 03:02:12;;;;;;;34.15;23.30;;;5.10;99.90;;;;;;5038776;28;20010;-80
2022/02/15 03:04:38;;;;;;;;;;;5.10;99.90;;;;;;5022396;28;20016;-80
2022/02/15 03:07:05;;;;;;;41.20;26.20;;;5.10;99.90;;;;;;5022003;28;19909;-80
2022/02/15 03:09:31;;;;;;;46.08;27.35;;;4.90;99.90;;;;;;5019166;28;20034;-80
2022/02/15 03:11:57;;;;;;;43.83;25.42;;;4.90;99.90;;;;;;5031852;28;20033;-80
2022/02/15 03:14:23;;;;;;;44.70;26.23;;;5.00;99.90;;;;;;5014299;28;20074;-80
2022/02/15 03:16:49;;;;;;;;;;;5.00;99.90;;;;;;5015699;28;20048;-80
2022/02/15 03:19:15;;;;;;;42.30;26.25;;;5.00;99.90;;;;;;5033328;28;20365;-80
2022/02/15 03:21:40;;;;;;;;;;;5.00;99.90;;;;;;5033641;28;20029;-80
2022/02/15 03:24:06;;;;;;;39.92;26.13;;;5.00;99.90;;;;;;5031914;28;19905;-80
2022/02/15 03:26:32;;;;;;;;;;;5.00;99.90;;;;;;5033704;28;20030;-81
2022/02/15 03:28:58;;;;;;;34.70;23.42;;;5.00;99.90;;;;;;5015314;28;19908;-81
2022/02/15 03:31:24;;;;;;;;;;;5.00;99.90;;;;;;5032697;28;20030;-80
2022/02/15 03:33:50;;;;;;;44.05;25.73;;;5.00;99.90;;;;;;5033749;28;19898;-81
2022/02/15 03:36:16;;;;;;;;;;;5.00;99.90;;;;;;5035617;28;20030;-80
2022/02/15 03:38:42;;;;;;;47.28;28.05;;;4.90;99.90;;;;;;5034493;28;19940;-80
2022/02/15 03:43:54;;;;;;;46.10;27.33;;;4.80;99.90;;;;;;5037291;28;19956;-79
2022/02/15 03:46:23;;;;;;;45.35;29.02;;;4.90;99.90;;;;;;5023745;28;20033;-81
2022/02/15 03:48:50;;;;;;;45.08;29.00;;;4.90;99.90;;;;;;5040259;28;20022;-80
2022/02/15 03:51:15;;;;;;;43.53;28.48;;;4.90;99.90;;;;;;5023927;28;20013;-81
2022/02/15 03:53:41;;;;;;;46.50;28.95;;;4.90;99.90;;;;;;5040475;28;20025;-80
2022/02/15 03:56:09;;;;;;;;;;;4.90;99.90;;;;;;5040160;28;20017;-80
2022/02/15 03:58:36;;;;;;;47.72;30.20;;;4.80;99.90;;;;;;5038719;28;19918;-81
2022/02/15 04:01:02;;;;;;;48.97;31.10;;;4.80;99.90;;;;;;5041030;28;20077;-80
2022/02/15 04:03:27;;;;;;;;;;;4.80;99.90;;;;;;5023266;28;20037;-80
2022/02/15 04:05:54;;;;;;;49.30;29.92;;;5.00;99.90;;;;;;5038520;28;19897;-80
2022/02/15 04:08:24;;;;;;;50.17;29.17;;;4.80;99.90;;;;;;5022697;28;20034;-80
2022/02/15 04:10:51;;;;;;;52.17;32.38;;;4.90;99.90;;;;;;5039718;28;20028;-80
2022/02/15 04:13:18;;;;;;;44.55;29.67;;;4.90;99.90;;;;;;5039086;28;20037;-81
2022/02/15 04:15:44;;;;;;;46.65;30.70;;;4.90;99.90;;;;;;5515898;23;20550;-80
2022/02/15 04:18:11;;;;;;;55.35;33.58;;;5.00;99.90;;;;;;5036793;28;20042;-81
2022/02/15 04:20:40;;;;;;;51.30;31.88;;;4.90;99.90;;;;;;5038267;28;20060;-81
2022/02/15 04:23:05;;;;;;;51.42;32.00;;;4.90;99.90;;;;;;5037370;28;20029;-79
2022/02/15 04:25:32;;;;;;;54.75;33.17;;;4.80;99.90;;;;;;5036617;28;20037;-79
2022/02/15 04:27:58;;;;;;;50.97;32.00;;;4.90;99.90;;;;;;5023324;28;20014;-79
2022/02/15 04:30:24;;;;;;;47.25;32.75;;;5.00;99.90;;;;;;5022878;28;20030;-78
2022/02/15 04:32:50;;;;;;;47.63;31.48;;;4.90;99.90;;;;;;5021261;28;20053;-80
2022/02/15 04:35:16;;;;;;;;;;;4.80;99.90;;;;;;5022384;28;20041;-80
2022/02/15 04:37:42;;;;;;;50.90;30.40;;;5.00;99.90;;;;;;5023087;28;19893;-80
2022/02/15 04:40:08;;;;;;;;;;;4.90;99.90;;;;;;5023980;28;20037;-80
2022/02/15 04:42:34;;;;;;;49.50;30.17;;;5.00;99.90;;;;;;5039699;28;20441;-78
2022/02/15 04:45:00;;;;;;;52.17;30.33;;;4.90;99.90;;;;;;5040061;28;20030;-79
2022/02/15 04:47:26;;;;;;;;;;;5.00;99.90;;;;;;5015164;28;20038;-78
2022/02/15 04:49:52;;;;;;;47.13;29.08;;;5.00;99.90;;;;;;5017232;28;19899;-78
2022/02/15 04:52:18;;;;;;;;;;;5.00;99.90;;;;;;5035606;28;20017;-79
2022/02/15 04:54:44;;;;;;;53.88;29.20;;;4.90;99.90;;;;;;5018881;28;19905;-80
2022/02/15 04:57:10;;;;;;;46.08;29.77;;;4.90;99.90;;;;;;5036984;28;20033;-79
2022/02/15 04:59:36;;;;;;;;;;;4.90;99.90;;;;;;5037797;28;20022;-80
2022/02/15 05:02:01;;;;;;;55.80;32.97;;;4.80;99.90;;;;;;5036539;28;19900;-78
2022/02/15 05:07:12;;;;;;;51.70;30.13;;;4.70;99.90;;;;;;5039199;28;19916;-79
2022/02/15 05:09:38;;;;;;;;;;;4.80;99.90;;;;;;5022681;28;20026;-79
2022/02/15 05:12:04;;;;;;;49.70;30.92;;;4.80;99.90;;;;;;5023090;28;19924;-81
2022/02/15 06:01:19;;;;;;;61.03;33.78;;;5.00;99.90;;;;;;5096936;22;20033;-79
2022/02/15 06:06:29;;;;;;;56.03;34.92;;;5.00;99.90;;;;;;5046457;28;20101;-79
2022/02/15 06:08:55;;;;;;;57.83;33.85;;;5.00;99.90;;;;;;5027196;28;20021;-79
2022/02/15 06:11:21;;;;;;;63.28;33.70;;;5.10;99.90;;;;;;5030386;28;20017;-80
2022/02/15 06:13:49;;;;;;;;;;;5.00;99.90;;;;;;5031505;28;20116;-80
2022/02/15 06:16:15;;;;;;;55.42;33.42;;;5.10;99.90;;;;;;5038204;28;19893;-80
2022/02/15 06:18:40;;;;;;;;;;;5.00;99.90;;;;;;5037373;28;20057;-80
2022/02/15 06:21:06;;;;;;;55.97;31.75;;;5.10;99.90;;;;;;5033133;28;19911;-79
2022/02/15 06:23:32;;;;;;;61.70;32.97;;;5.00;99.90;;;;;;5057383;28;20018;-79
2022/02/15 06:25:58;;;;;;;56.22;32.22;;;5.00;99.90;;;;;;5055342;28;20046;-79
2022/02/15 06:28:24;;;;;;;;;;;5.00;99.90;;;;;;5055770;28;20041;-80
2022/02/15 06:30:50;;;;;;;51.10;30.33;;;5.00;99.90;;;;;;5037352;28;20399;-79
2022/02/15 06:33:16;;;;;;;60.42;30.67;;;5.00;99.90;;;;;;5038571;28;20017;-79
2022/02/15 06:35:42;;;;;;;;;;;5.10;99.90;;;;;;5037484;28;20071;-81
2022/02/15 06:38:08;;;;;;;54.63;31.55;;;5.10;99.90;;;;;;5036168;28;19924;-80
2022/02/15 06:40:34;;;;;;;57.05;33.60;;;5.00;99.90;;;;;;5053919;28;20016;-80
2022/02/15 06:43:00;;;;;;;62.03;33.20;;;5.00;99.90;;;;;;5047445;28;20030;-80
2022/02/15 06:45:25;;;;;;;;;;;4.80;99.90;;;;;;5053270;28;20073;-79
2022/02/15 06:47:51;;;;;;;57.15;33.08;;;5.00;99.90;;;;;;5034214;28;19917;-80
2022/02/15 06:50:17;;;;;;;80.45;39.30;;;5.10;99.90;;;;;;5040360;28;20045;-80
2022/02/15 06:52:43;;;;;;;;;;;5.10;99.90;;;;;;5038228;28;20014;-80
2022/02/15 06:55:09;;;;;;;60.95;34.25;;;5.10;99.90;;;;;;5055122;28;19909;-80
2022/02/15 06:57:36;;;;;;;62.88;38.00;;;5.10;99.90;;;;;;5038707;28;20032;-80
2022/02/15 07:00:02;;;;;;;59.53;38.55;;;5.20;99.90;;;;;;5056412;28;20010;-80
2022/02/15 07:02:28;;;;;;;67.28;36.40;;;5.30;99.90;;;;;;5055753;28;20076;-80
2022/02/15 07:04:54;;;;;;;;;;;5.30;99.90;;;;;;5039224;28;20037;-80
2022/02/15 07:07:20;;;;;;;66.35;35.13;;;5.20;99.90;;;;;;5040261;28;19924;-79
2022/02/15 07:09:46;;;;;;;;;;;5.20;99.90;;;;;;5044244;28;20005;-79
2022/02/15 07:12:12;;;;;;;73.68;41.20;;;5.30;99.90;;;;;;5315862;22;20101;-79
2022/02/15 07:14:38;;;;;;;;;;;5.30;99.90;;;;;;5039897;28;20014;-80
2022/02/15 07:17:05;;;;;;;63.88;36.88;;;5.30;99.90;;;;;;5040885;28;19900;-80
2022/02/15 07:19:32;;;;;;;63.20;36.58;;;5.30;99.90;;;;;;5025429;28;20026;-80
2022/02/15 07:22:02;;;;;;;61.88;35.13;;;5.40;99.90;;;;;;5041546;28;20022;-80
2022/02/15 07:24:29;;;;;;;67.97;35.55;;;5.30;99.90;;;;;;5021455;28;20010;-79
2022/02/15 07:26:55;;;;;;;59.75;35.88;;;5.30;99.90;;;;;;5015197;28;20042;-79
2022/02/15 07:29:21;;;;;;;57.53;36.63;;;5.30;99.90;;;;;;5031191;28;20168;-79
2022/02/15 07:31:48;;;;;;;62.67;36.03;;;5.30;99.90;;;;;;5029647;28;20034;-78
2022/02/15 07:34:14;;;;;;;64.78;37.03;;;5.40;99.90;;;;;;5014724;28;20026;-79
2022/02/15 07:36:40;;;;;;;65.30;36.92;;;5.40;99.90;;;;;;5015275;28;20080;-79
2022/02/15 07:39:06;;;;;;;;;;;5.40;99.90;;;;;;5018187;28;20018;-80
2022/02/15 07:41:32;;;;;;;64.85;38.25;;;5.40;99.90;;;;;;5021828;28;19890;-80
2022/02/15 07:43:57;;;;;;;;;;;5.40;99.90;;;;;;5023495;28;20077;-79
2022/02/15 07:46:24;;;;;;;68.95;38.08;;;5.40;99.90;;;;;;5023262;28;19902;-79
2022/02/15 07:48:50;;;;;;;69.30;38.42;;;5.50;99.90;;;;;;5024938;28;20014;-80
2022/02/15 07:51:17;;;;;;;65.35;38.33;;;5.50;99.90;;;;;;5020323;28;20022;-80
2022/02/15 07:53:44;;;;;;;65.00;35.53;;;5.40;99.90;;;;;;5021308;28;20014;-78
2022/02/15 07:56:10;;;;;;;59.17;35.00;;;5.40;99.90;;;;;;5041733;28;20006;-80
2022/02/15 07:58:36;;;;;;;67.03;36.00;;;5.60;99.90;;;;;;5024905;28;20006;-81
2022/02/15 08:01:03;;;;;;;62.03;35.40;;;5.50;99.90;;;;;;5041325;28;20029;-80
2022/02/15 08:03:29;;;;;;;61.67;35.17;;;5.70;99.90;;;;;;5024662;28;20102;-80
2022/02/15 08:05:54;;;;;;;;;;;5.60;99.90;;;;;;5024130;28;20017;-79
2022/02/15 08:08:20;;;;;;;66.10;35.13;;;5.60;99.90;;;;;;5040022;28;19900;-80
2022/02/15 08:10:47;;;;;;;62.03;34.20;;;5.50;99.90;;;;;;5023669;28;20014;-80
2022/02/15 08:13:18;;;;;;;64.65;35.05;;;5.50;99.90;;;;;;5042654;28;20473;-80
2022/02/15 08:15:45;;;;;;;70.43;34.35;;;5.60;99.90;;;;;;5059103;28;20005;-81
2022/02/15 08:18:11;;;;;;;63.25;34.88;;;5.70;99.90;;;;;;5059823;28;20026;-80
2022/02/15 08:20:38;;;;;;;71.13;34.72;;;5.70;99.90;;;;;;5059345;28;20056;-80
2022/02/15 08:23:05;;;;;;;64.78;36.90;;;5.60;99.90;;;;;;5042606;28;20020;-80
2022/02/15 08:25:31;;;;;;;64.03;34.90;;;5.60;99.90;;;;;;5059920;28;20101;-80
2022/02/15 08:27:57;;;;;;;81.15;41.20;;;5.60;99.90;;;;;;5038662;28;20086;-80
2022/02/15 08:30:24;;;;;;;85.47;39.65;;;5.70;99.90;;;;;;5039019;28;20011;-80
2022/02/15 08:32:49;;;;;;;71.15;38.58;;;5.70;99.90;;;;;;5041148;28;20037;-82
2022/02/15 08:35:17;;;;;;;70.00;36.88;;;5.80;99.90;;;;;;5056219;28;20006;-81
2022/02/15 08:37:43;;;;;;;68.47;35.33;;;5.70;99.90;;;;;;5056857;28;20032;-80
2022/02/15 08:40:12;;;;;;;71.18;36.58;;;5.80;99.90;;;;;;5060263;28;20065;-80
2022/02/15 08:42:39;;;;;;;63.28;35.45;;;5.80;99.90;;;;;;5043027;28;20010;-80
2022/02/15 08:45:07;;;;;;;69.15;37.92;;;5.90;99.90;;;;;;5060076;28;20017;-79
2022/02/15 08:47:34;;;;;;;65.63;35.63;;;5.80;99.90;;;;;;5042715;28;20064;-81
2022/02/15 08:50:00;;;;;;;71.40;38.42;;;6.00;99.90;;;;;;5042857;28;20010;-80
2022/02/15 08:52:29;;;;;;;67.55;36.40;;;6.00;99.90;;;;;;5058863;28;20009;-80
2022/02/15 08:54:55;;;;;;;65.43;37.97;;;6.00;99.90;;;;;;5058167;28;20090;-80
2022/02/15 08:57:22;;;;;;;77.43;38.15;;;6.10;99.90;;;;;;5057317;28;20010;-81
2022/02/15 08:59:53;;;;;;;64.10;34.75;;;6.10;99.90;;;;;;5058873;28;20030;-79
2022/02/15 09:02:20;;;;;;;66.32;34.60;;;6.30;99.90;;;;;;5058746;28;20064;-79
2022/02/15 09:04:46;;;;;;;62.03;35.10;;;6.40;99.90;;;;;;5043526;28;20021;-81
2022/02/15 09:07:12;;;;;;;58.70;35.55;;;6.40;99.90;;;;;;5059326;28;20037;-79
2022/02/15 09:09:40;;;;;;;68.15;38.38;;;6.40;99.90;;;;;;5028814;28;20122;-77
2022/02/15 09:12:06;;;;;;;72.40;39.17;;;6.40;99.90;;;;;;5047507;28;20085;-79
2022/02/15 09:14:32;;;;;;;67.30;36.88;;;6.50;99.90;;;;;;5035516;28;20029;-80
2022/02/15 09:17:04;;;;;;;71.50;38.58;;;6.60;99.90;;;;;;5027600;28;20056;-80
2022/02/15 09:19:31;;;;;;;66.13;36.30;;;6.60;99.90;;;;;;5054245;28;20033;-80
2022/02/15 09:21:59;;;;;;;60.95;37.17;;;6.60;99.90;;;;;;5040442;28;20013;-80
2022/02/15 09:24:27;;;;;;;62.70;36.70;;;6.60;99.90;;;;;;5060160;28;20006;-78
2022/02/15 09:26:53;;;;;;;63.88;37.47;;;6.60;99.90;;;;;;5043022;28;20044;-80
2022/02/15 09:29:18;;;;;;;65.93;36.60;;;6.40;99.90;;;;;;5060154;28;20014;-78
2022/02/15 09:31:45;;;;;;;;;;;6.50;99.90;;;;;;5059489;28;20009;-79
2022/02/15 09:34:11;;;;;;;72.37;37.77;;;6.60;99.90;;;;;;5055975;28;19966;-81
2022/02/15 09:36:37;;;;;;;;;;;6.40;99.90;;;;;;5050004;28;20036;-80
2022/02/15 09:39:04;;;;;;;64.63;37.20;;;6.50;99.90;;;;;;5053325;28;19948;-80
2022/02/15 09:41:33;;;;;;;68.95;38.58;;;6.60;99.90;;;;;;5039069;28;20018;-80
2022/02/15 09:44:06;;;;;;;66.95;40.00;;;6.40;99.90;;;;;;5056380;28;20009;-80
2022/02/15 09:46:34;;;;;;;65.60;38.63;;;6.40;99.90;;;;;;5055698;28;20038;-80
2022/02/15 09:49:01;;;;;;;67.80;39.75;;;6.50;99.90;;;;;;5042496;28;20048;-80
2022/02/15 09:51:28;;;;;;;69.65;39.92;;;6.60;99.90;;;;;;5042636;28;20029;-79
2022/02/15 09:53:54;;;;;;;74.55;40.78;;;6.70;99.90;;;;;;5042612;28;20016;-79
2022/02/15 09:56:20;;;;;;;;;;;6.70;99.90;;;;;;5042934;28;20041;-80
2022/02/15 09:58:49;;;;;;;76.03;42.72;;;6.70;99.90;;;;;;5058886;28;19935;-80
2022/02/15 10:01:16;;;;;;;77.22;38.63;;;6.60;99.90;;;;;;5052870;28;20009;-77
2022/02/15 10:03:49;;;;;;;67.22;38.58;;;6.80;99.90;;;;;;5038962;28;20033;-78
2022/02/15 10:06:15;;;;;;;67.00;40.20;;;7.00;99.90;;;;;;5047227;28;20034;-81
2022/02/15 10:08:41;;;;;;;63.55;38.22;;;7.10;99.90;;;;;;5039295;28;20020;-78
2022/02/15 10:17:17;;;;;;;65.43;36.88;;;7.40;99.90;;;;;;6011049;22;21110;-78
2022/02/15 10:19:47;;;;;;;67.10;36.97;;;7.50;99.90;;;;;;5037107;28;20010;-80
2022/02/15 10:22:15;;;;;;;59.70;37.42;;;7.50;99.90;;;;;;5037019;28;20029;-79
2022/02/15 10:24:41;;;;;;;58.92;36.97;;;7.50;99.90;;;;;;5033555;28;20036;-79
2022/02/15 10:27:11;;;;;;;;;;;7.60;99.90;;;;;;5033069;28;20025;-79
2022/02/15 10:29:42;;;;;;;63.25;37.83;;;7.50;99.90;;;;;;5021341;28;19909;-80
2022/02/15 10:32:11;;;;;;;65.38;36.65;;;7.60;99.90;;;;;;5017062;28;20053;-79
2022/02/15 10:34:49;;;;;;;58.13;38.65;;;7.70;99.90;;;;;;5019409;28;20101;-78
2022/02/15 10:37:17;;;;;;;60.17;36.85;;;7.80;99.90;;;;;;5022296;28;20014;-80
2022/02/15 10:39:54;;;;;;;61.15;35.10;;;7.80;99.90;;;;;;5039438;28;20017;-79
2022/02/15 10:42:21;;;;;;;62.17;36.08;;;7.90;99.90;;;;;;5036657;28;20048;-79
2022/02/15 10:44:59;;;;;;;66.03;39.15;;;8.10;99.90;;;;;;5023187;28;20021;-78
2022/02/15 10:47:36;;;;;;;55.03;34.30;;;8.30;99.90;;;;;;5025754;28;20037;-80
2022/02/15 10:50:09;;;;;;;55.55;36.38;;;8.50;99.90;;;;;;5025325;28;20062;-81
2022/02/15 10:52:35;;;;;;;51.85;32.47;;;8.50;99.90;;;;;;5024278;28;20014;-79
2022/02/15 10:55:02;;;;;;;55.78;33.60;;;8.50;99.90;;;;;;5042619;28;20006;-79
2022/02/15 10:57:29;;;;;;;56.83;35.22;;;8.50;99.90;;;;;;5042903;28;20037;-79
2022/02/15 10:59:56;;;;;;;58.63;36.58;;;8.50;99.90;;;;;;5023625;28;20596;-78
2022/02/15 11:02:25;;;;;;;52.63;34.17;;;8.60;99.90;;;;;;5042955;28;20037;-78
2022/02/15 11:04:52;;;;;;;54.85;34.70;;;8.80;99.90;;;;;;5042954;28;20021;-79
2022/02/15 11:07:22;;;;;;;55.97;36.40;;;8.70;99.90;;;;;;5025770;28;20060;-79
2022/02/15 15:50:53;;;;;;;40.67;26.35;;;8.40;99.90;;;;;;5289614;23;20521;-80
2022/02/15 15:53:18;;;;;;;;;;;8.20;99.90;;;;;;5000351;28;20031;-81
2022/02/15 15:55:44;;;;;;;41.50;26.85;;;8.10;99.90;;;;;;5000288;28;19913;-80
2022/02/15 15:58:12;;;;;;;42.67;27.20;;;8.10;99.90;;;;;;5000689;28;20015;-80
2022/02/15 16:00:38;;;;;;;46.55;30.00;;;8.00;99.90;;;;;;5000843;28;20015;-81
2022/02/15 16:03:03;;;;;;;;;;;8.00;99.90;;;;;;4984089;28;20035;-81
2022/02/15 16:05:29;;;;;;;41.78;28.30;;;7.80;99.90;;;;;;4982454;28;19906;-80
2022/02/15 16:07:58;;;;;;;;;;;7.60;99.90;;;;;;4983414;28;20027;-80
2022/02/15 16:10:24;;;;;;;49.03;29.50;;;7.60;99.90;;;;;;4979191;29;19917;-80
2022/02/15 16:12:50;;;;;;;;;;;7.50;99.90;;;;;;4963721;29;20019;-80
2022/02/15 16:15:15;;;;;;;51.35;31.38;;;7.30;99.90;;;;;;4963702;29;19891;-80
2022/02/15 16:17:41;;;;;;;53.40;30.02;;;7.40;99.90;;;;;;4981232;28;20058;-80
2022/02/15 16:20:12;;;;;;;55.55;31.80;;;7.30;99.90;;;;;;4981182;28;20092;-80
2022/02/15 16:22:38;;;;;;;63.55;41.53;;;7.20;99.90;;;;;;4962845;28;20082;-80
2022/02/15 16:25:05;;;;;;;;;;;7.10;99.90;;;;;;4981580;28;20023;-80
2022/02/15 16:27:30;;;;;;;68.38;45.05;;;7.00;99.90;;;;;;4964580;28;19902;-78
2022/02/15 16:29:56;;;;;;;60.05;38.17;;;6.90;99.90;;;;;;4982499;28;20026;-80
2022/02/15 16:32:22;;;;;;;;;;;6.80;99.90;;;;;;4982968;28;20042;-80
2022/02/15 16:34:51;;;;;;;70.30;44.50;;;6.70;99.90;;;;;;4982583;28;19901;-79
2022/02/15 16:37:17;;;;;;;81.57;47.78;;;6.80;99.90;;;;;;4982127;28;20072;-80
2022/02/15 16:39:43;;;;;;;81.68;46.03;;;6.60;99.90;;;;;;4982265;28;20023;-80
2022/02/15 16:42:09;;;;;;;;;;;6.60;99.90;;;;;;4981689;28;20067;-79
2022/02/15 16:44:38;;;;;;;86.25;47.28;;;6.50;99.90;;;;;;4964985;28;19957;-79
2022/02/15 16:47:10;;;;;;;106.82;55.05;;;6.40;99.90;;;;;;4981805;28;20031;-79
2022/02/15 16:49:37;;;;;;;95.20;50.38;;;6.40;99.90;;;;;;4981886;28;20063;-79
2022/02/15 16:52:04;;;;;;;75.72;42.70;;;6.30;99.90;;;;;;4981665;28;20039;-80
2022/02/15 16:54:30;;;;;;;89.43;50.92;;;6.30;99.90;;;;;;4981911;28;20019;-78
2022/02/15 16:56:57;;;;;;;;;;;6.20;99.90;;;;;;4981594;28;20031;-79
2022/02/15 16:59:23;;;;;;;67.78;41.42;;;6.20;99.90;;;;;;4965054;28;19921;-80
2022/02/15 17:01:53;;;;;;;63.10;40.50;;;6.10;99.90;;;;;;4981708;28;20071;-78
2022/02/15 17:04:18;;;;;;;52.58;32.58;;;6.10;99.90;;;;;;4981779;28;20071;-81
2022/02/15 17:43:08;;;;;;;57.97;34.13;;;5.80;99.90;;;;;;5315726;23;20035;-79
2022/02/15 17:45:34;;;;;;;;;;;5.80;99.90;;;;;;4983777;28;20087;-80
2022/02/15 17:47:59;;;;;;;65.47;34.88;;;5.80;99.90;;;;;;4999938;28;19909;-79
2022/02/15 17:50:25;;;;;;;;;;;5.80;99.90;;;;;;4997622;28;20027;-79
2022/02/15 17:52:51;;;;;;;62.13;37.55;;;5.80;99.90;;;;;;4999053;28;19958;-80
2022/02/15 17:55:17;;;;;;;58.53;33.30;;;5.90;99.90;;;;;;4983459;28;20035;-79
2022/02/15 17:57:43;;;;;;;51.45;31.58;;;5.90;99.90;;;;;;5000352;28;20083;-77
2022/02/15 18:00:09;;;;;;;255.00;127.05;;;5.80;99.90;;;;;;4982036;28;20026;-80
2022/02/15 18:02:34;;;;;;;;;;;5.80;99.90;;;;;;4982726;28;20043;-80
2022/02/15 18:05:00;;;;;;;610.45;318.10;;;5.80;99.90;;;;;;4999265;28;19901;-80
2022/02/15 18:46:58;;;;;;;40.85;24.85;;;6.60;99.90;;;;;;6147545;23;20032;-79
2022/02/15 18:49:25;;;;;;;56.45;31.30;;;6.60;99.90;;;;;;4976685;28;20031;-78
2022/02/15 18:51:50;;;;;;;72.43;41.95;;;6.70;99.90;;;;;;4978349;28;20015;-79
2022/02/15 18:54:22;;;;;;;;;;;6.70;99.90;;;;;;4978741;28;20013;-79
2022/02/15 18:56:49;;;;;;;134.82;50.53;;;6.70;99.90;;;;;;4963022;28;19911;-79
2022/02/15 18:59:15;;;;;;;160.93;57.13;;;6.80;99.90;;;;;;4978489;28;20050;-80
2022/02/15 19:01:41;;;;;;;85.80;38.45;;;6.90;99.90;;;;;;4977954;28;20015;-79
2022/02/15 19:04:07;;;;;;;;;;;6.90;99.90;;;;;;4981542;28;20027;-80
2022/02/15 19:06:33;;;;;;;56.67;30.98;;;6.90;99.90;;;;;;4982719;28;19902;-77
2022/02/15 19:08:59;;;;;;;;;;;6.90;99.90;;;;;;4967070;28;20015;-79
2022/02/15 19:11:25;;;;;;;75.32;36.65;;;6.90;99.90;;;;;;4982856;28;19894;-79
2022/02/15 19:13:51;;;;;;;76.93;35.45;;;7.00;99.90;;;;;;4966239;28;20020;-80
2022/02/15 19:16:17;;;;;;;84.70;39.05;;;7.00;99.90;;;;;;4967014;28;20034;-79
2022/02/15 19:18:42;;;;;;;;;;;7.00;99.90;;;;;;4984327;28;20031;-79
2022/02/15 19:21:10;;;;;;;136.38;59.80;;;6.90;99.90;;;;;;4982934;28;19978;-79
2022/02/15 19:23:35;;;;;;;123.72;54.15;;;6.90;99.90;;;;;;4966796;28;20027;-79
2022/02/15 19:26:01;;;;;;;;;;;6.90;99.90;;;;;;4983777;28;20035;-77
2022/02/15 19:28:27;;;;;;;92.68;48.72;;;7.00;99.90;;;;;;4983534;28;19914;-79
2022/02/15 19:30:54;;;;;;;102.05;49.33;;;7.00;99.90;;;;;;4983619;28;20071;-80
2022/02/15 19:33:22;;;;;;;94.88;48.78;;;7.00;99.90;;;;;;4983566;28;20039;-80
2022/02/15 19:35:50;;;;;;;97.15;47.05;;;7.10;99.90;;;;;;4966760;28;20008;-79
2022/02/15 19:38:15;;;;;;;90.10;49.10;;;7.00;99.90;;;;;;4982440;28;20027;-78
2022/02/15 19:40:41;;;;;;;;;;;7.00;99.90;;;;;;4983764;28;20040;-79
2022/02/15 19:43:09;;;;;;;43.80;23.33;;;7.00;99.90;;;;;;4967175;28;20303;-78
2022/02/15 19:45:43;;;;;;;58.67;32.17;;;7.00;99.90;;;;;;4983552;28;20051;-78
2022/02/15 19:48:10;;;;;;;62.03;34.92;;;7.10;99.90;;;;;;4983049;28;20099;-77
2022/02/15 19:50:37;;;;;;;54.17;33.75;;;7.00;99.90;;;;;;4983077;28;20087;-77
2022/02/15 19:53:03;;;;;;;55.03;34.75;;;6.80;99.90;;;;;;4983079;28;20029;-79
2022/02/15 19:55:29;;;;;;;;;;;6.70;99.90;;;;;;4963573;28;20031;-78
2022/02/15 19:57:55;;;;;;;61.70;34.08;;;6.60;99.90;;;;;;4945609;29;19910;-78
2022/02/15 20:00:20;;;;;;;;;;;6.60;99.90;;;;;;4969031;29;20038;-78
2022/02/15 20:02:46;;;;;;;52.75;30.00;;;6.60;99.90;;;;;;4955679;29;19906;-78
2022/02/15 20:05:12;;;;;;;46.50;28.13;;;6.80;99.90;;;;;;4959408;29;20515;-78
2022/02/15 20:07:37;;;;;;;50.90;30.98;;;7.00;99.90;;;;;;4960205;29;20137;-78
2022/02/15 20:10:03;;;;;;;53.78;30.42;;;7.00;99.90;;;;;;4962031;29;20046;-78
2022/02/15 20:12:29;;;;;;;46.35;27.60;;;6.90;99.90;;;;;;4960083;29;20049;-78
2022/02/15 20:14:55;;;;;;;;;;;6.80;99.90;;;;;;4943211;29;20023;-79
2022/02/15 20:17:20;;;;;;;50.63;26.85;;;6.70;99.90;;;;;;4945396;29;19906;-79
2022/02/15 20:19:48;;;;;;;;;;;6.60;99.90;;;;;;4950147;29;20035;-79
2022/02/15 20:22:14;;;;;;;53.30;30.05;;;6.70;99.90;;;;;;4948996;29;19890;-79
2022/02/15 20:24:39;;;;;;;;;;;6.70;99.90;;;;;;4958964;29;20038;-79
2022/02/15 20:27:05;;;;;;;47.47;28.67;;;6.70;99.90;;;;;;4951328;29;20384;-79
2022/02/15 20:29:31;;;;;;;46.92;28.85;;;6.60;99.90;;;;;;4967704;29;20035;-78
2022/02/15 20:31:56;;;;;;;;;;;6.60;99.90;;;;;;4966644;29;20223;-77
2022/02/15 20:34:22;;;;;;;49.58;26.42;;;6.60;99.90;;;;;;4965563;29;19910;-79
2022/02/15 20:36:48;;;;;;;;;;;6.80;99.90;;;;;;4962397;29;20377;-78
2022/02/15 20:39:15;;;;;;;53.03;26.95;;;6.70;99.90;;;;;;4946955;29;19918;-79
2022/02/15 20:41:41;;;;;;;56.75;31.52;;;6.60;99.90;;;;;;4962870;29;20023;-78
2022/02/15 20:44:07;;;;;;;;;;;6.50;99.90;;;;;;4963781;29;20032;-78
2022/02/15 20:46:33;;;;;;;63.22;33.33;;;6.30;99.90;;;;;;4961270;29;19973;-79
2022/02/15 20:49:00;;;;;;;;;;;6.10;99.90;;;;;;4944092;29;20050;-79
2022/02/15 20:51:27;;;;;;;65.47;33.28;;;6.10;99.90;;;;;;4943854;29;20383;-79
2022/02/15 20:53:52;;;;;;;70.22;34.30;;;6.00;99.90;;;;;;4955808;29;20015;-79
2022/02/15 20:56:19;;;;;;;;;;;5.80;99.90;;;;;;4977619;28;20016;-79
2022/02/15 20:58:44;;;;;;;62.55;34.38;;;5.80;99.90;;;;;;4978877;29;19924;-80
2022/02/15 21:01:10;;;;;;;;;;;5.70;99.90;;;;;;4962569;29;20011;-80
2022/02/15 21:03:36;;;;;;;65.60;35.95;;;5.70;99.90;;;;;;4962482;28;19895;-80
2022/02/15 21:06:02;;;;;;;;;;;5.60;99.90;;;;;;4963864;28;20042;-80
2022/02/15 21:08:28;;;;;;;55.80;31.17;;;5.60;99.90;;;;;;4979743;28;19918;-80
2022/02/15 21:10:56;;;;;;;;;;;5.60;99.90;;;;;;4979701;28;20031;-80
2022/02/15 21:13:22;;;;;;;78.95;42.58;;;5.60;99.90;;;;;;4963619;28;19894;-80
2022/02/15 21:15:48;;;;;;;;;;;5.60;99.90;;;;;;4979755;28;20058;-79
2022/02/15 21:18:13;;;;;;;51.72;28.77;;;5.70;99.90;;;;;;4980040;28;19911;-80
2022/02/15 21:20:41;;;;;;;;;;;5.80;99.90;;;;;;4963523;28;20011;-80
2022/02/15 21:23:07;;;;;;;41.85;23.98;;;6.00;99.90;;;;;;4980494;28;19910;-80
2022/02/15 21:25:33;;;;;;;40.75;23.65;;;6.10;99.90;;;;;;4963538;28;20026;-80